createdAt,value
2019-03-17T00:00:01.794Z,79.37
2019-03-17T00:02:35.353Z,74.03
2019-03-17T00:05:08.397Z,78.07
2019-03-17T00:07:41.124Z,73.05
2019-03-17T00:10:13.453Z,74.67
2019-03-17T00:12:46.068Z,81.75
2019-03-17T00:15:18.554Z,74.55
2019-03-17T00:17:51.208Z,75.03
2019-03-17T00:20:23.736Z,71.57
2019-03-17T00:22:56.779Z,74.77
2019-03-17T00:25:29.317Z,78.17
2019-03-17T00:28:01.831Z,83.00
2019-03-17T00:30:35.031Z,79.92
2019-03-17T00:33:07.369Z,74.42
2019-03-17T00:35:39.619Z,75.00
2019-03-17T00:38:12.063Z,70.80
2019-03-17T00:40:44.740Z,67.03
2019-03-17T00:43:18.387Z,65.57
2019-03-17T00:45:51.049Z,67.03
2019-03-17T00:48:23.921Z,70.78
2019-03-17T00:50:56.482Z,69.62
2019-03-17T00:53:29.152Z,67.42
2019-03-17T00:56:01.643Z,67.25
2019-03-17T00:58:37.099Z,74.20
2019-03-17T01:01:09.491Z,66.72
2019-03-17T01:03:42.358Z,67.42
2019-03-17T01:06:14.790Z,68.62
2019-03-17T01:08:47.255Z,77.22
2019-03-17T01:11:19.801Z,79.87
2019-03-17T01:13:52.787Z,70.10
2019-03-17T01:16:25.118Z,62.08
2019-03-17T01:18:58.016Z,64.17
2019-03-17T01:21:30.466Z,67.87
2019-03-17T01:24:03.628Z,59.73
2019-03-17T01:26:36.420Z,60.88
2019-03-17T01:29:08.946Z,58.92
2019-03-17T01:31:41.810Z,59.77
2019-03-17T01:34:14.700Z,56.65
2019-03-17T01:37:07.170Z,64.12
2019-03-17T01:39:40.143Z,53.58
2019-03-17T01:42:12.829Z,51.13
2019-03-17T01:44:45.801Z,50.10
2019-03-17T01:47:18.541Z,52.83
2019-03-17T01:49:52.077Z,54.08
2019-03-17T01:52:25.073Z,51.60
2019-03-17T01:54:58.275Z,51.85
2019-03-17T01:57:31.589Z,49.88
2019-03-17T02:00:04.235Z,52.93
2019-03-17T02:02:37.509Z,51.77
2019-03-17T02:05:21.403Z,49.50
2019-03-17T02:07:46.430Z,44.20
2019-03-17T02:10:19.283Z,47.17
2019-03-17T02:13:11.659Z,47.53
2019-03-17T02:15:44.466Z,47.25
2019-03-17T02:18:18.111Z,49.80
2019-03-17T02:20:51.413Z,51.70
2019-03-17T02:23:24.162Z,44.58
2019-03-17T02:25:56.832Z,48.78
2019-03-17T02:28:29.927Z,49.80
2019-03-17T02:31:03.254Z,49.35
2019-03-17T02:33:35.800Z,44.85
2019-03-17T02:36:08.413Z,49.65
2019-03-17T02:38:41.604Z,51.13
2019-03-17T02:41:14.796Z,48.90
2019-03-17T02:43:47.068Z,48.65
2019-03-17T02:46:20.169Z,51.05
2019-03-17T02:48:52.658Z,44.60
2019-03-17T02:51:25.526Z,41.33
2019-03-17T02:53:58.320Z,45.67
2019-03-17T02:56:30.815Z,51.73
2019-03-17T02:59:03.498Z,47.43
2019-03-17T03:01:36.120Z,47.95
2019-03-17T03:04:09.031Z,43.33
2019-03-17T03:06:41.566Z,45.88
2019-03-17T03:09:14.255Z,41.77
2019-03-17T03:11:46.967Z,42.27
2019-03-17T03:14:19.915Z,43.98
2019-03-17T03:16:52.348Z,45.20
2019-03-17T03:19:24.791Z,40.75
2019-03-17T03:21:57.725Z,41.33
2019-03-17T03:24:30.027Z,42.40
2019-03-17T03:27:02.539Z,45.05
2019-03-17T03:29:34.854Z,39.88
2019-03-17T03:32:07.439Z,39.95
2019-03-17T03:34:39.670Z,44.83
2019-03-17T03:37:12.021Z,40.92
2019-03-17T03:39:44.699Z,40.35
2019-03-17T03:42:17.100Z,41.42
2019-03-17T03:44:49.901Z,41.18
2019-03-17T03:47:22.912Z,47.27
2019-03-17T03:49:57.135Z,44.38
2019-03-17T03:52:29.873Z,42.98
2019-03-17T03:55:02.447Z,41.88
2019-03-17T03:57:34.729Z,49.42
2019-03-17T04:00:09.591Z,44.25
2019-03-17T04:02:42.089Z,46.50
2019-03-17T04:05:14.991Z,45.10
2019-03-17T04:07:47.688Z,43.73
2019-03-17T04:10:21.721Z,41.45
2019-03-17T04:12:54.100Z,46.02
2019-03-17T04:15:26.615Z,45.35
2019-03-17T04:17:59.018Z,44.53
2019-03-17T04:20:31.590Z,46.75
2019-03-17T04:23:04.143Z,44.38
2019-03-17T04:25:36.437Z,47.03
2019-03-17T04:28:08.753Z,42.67
2019-03-17T04:30:41.415Z,47.10
2019-03-17T04:33:13.891Z,46.23
2019-03-17T04:35:46.392Z,42.62
2019-03-17T04:38:20.146Z,43.48
2019-03-17T04:40:52.991Z,46.15
2019-03-17T04:43:25.588Z,45.10
2019-03-17T04:45:58.370Z,44.45
2019-03-17T04:48:31.074Z,47.33
2019-03-17T04:51:03.661Z,45.28
2019-03-17T04:53:35.962Z,43.52
2019-03-17T04:56:08.972Z,39.98
2019-03-17T04:58:41.066Z,41.80
2019-03-17T05:01:13.917Z,47.80
2019-03-17T05:03:46.765Z,43.73
2019-03-17T05:06:19.762Z,45.58
2019-03-17T05:08:52.150Z,40.67
2019-03-17T05:11:24.572Z,44.38
2019-03-17T05:13:57.140Z,41.33
2019-03-17T05:16:29.697Z,42.67
2019-03-17T05:19:02.522Z,41.25
2019-03-17T05:21:34.841Z,44.65
2019-03-17T05:24:07.368Z,41.40
2019-03-17T05:26:39.894Z,46.95
2019-03-17T05:29:12.787Z,44.53
2019-03-17T05:31:45.122Z,43.58
2019-03-17T05:34:17.720Z,44.63
2019-03-17T05:36:50.062Z,46.30
2019-03-17T05:39:22.487Z,49.53
2019-03-17T05:41:55.108Z,48.98
2019-03-17T05:44:27.884Z,48.30
2019-03-17T05:47:00.405Z,47.08
2019-03-17T05:49:33.081Z,46.18
2019-03-17T05:52:05.945Z,48.75
2019-03-17T05:54:38.196Z,47.62
2019-03-17T05:57:18.093Z,46.13
2019-03-17T05:59:50.310Z,46.37
2019-03-17T06:02:39.175Z,45.78
2019-03-17T06:05:11.796Z,48.20
2019-03-17T06:07:44.348Z,46.90
2019-03-17T06:10:16.978Z,47.73
2019-03-17T06:12:49.562Z,47.15
2019-03-17T06:15:22.111Z,48.55
2019-03-17T06:17:54.513Z,48.10
2019-03-17T06:20:27.157Z,48.10
2019-03-17T06:23:00.118Z,50.45
2019-03-17T06:25:51.877Z,47.73
2019-03-17T06:28:24.196Z,46.35
2019-03-17T06:31:16.271Z,48.85
2019-03-17T06:33:48.933Z,50.33
2019-03-17T06:36:21.446Z,50.03
2019-03-17T06:38:53.730Z,48.92
2019-03-17T06:41:26.383Z,49.25
2019-03-17T06:43:58.821Z,48.13
2019-03-17T06:46:31.425Z,49.93
2019-03-17T06:49:04.071Z,50.52
2019-03-17T06:51:36.629Z,52.30
2019-03-17T06:54:09.377Z,49.10
2019-03-17T06:56:42.430Z,48.98
2019-03-17T06:59:27.039Z,48.73
2019-03-17T07:02:00.015Z,50.00
2019-03-17T07:04:32.606Z,51.63
2019-03-17T07:07:05.276Z,51.63
2019-03-17T07:09:37.962Z,51.63
2019-03-17T07:12:10.493Z,51.02
2019-03-17T07:14:42.963Z,49.48
2019-03-17T07:17:15.840Z,51.30
2019-03-17T07:19:48.575Z,51.08
2019-03-17T07:22:21.306Z,51.77
2019-03-17T07:24:53.737Z,51.73
2019-03-17T07:27:26.078Z,51.75
2019-03-17T07:29:58.656Z,50.90
2019-03-17T07:32:31.324Z,50.78
2019-03-17T07:35:04.161Z,50.78
2019-03-17T07:37:36.477Z,52.33
2019-03-17T07:40:11.487Z,51.55
2019-03-17T07:42:44.349Z,51.02
2019-03-17T07:45:16.991Z,51.85
2019-03-17T07:47:49.650Z,50.12
2019-03-17T07:50:22.191Z,51.70
2019-03-17T07:52:54.674Z,49.60
2019-03-17T07:55:38.597Z,51.45
2019-03-17T07:58:11.216Z,51.48
2019-03-17T08:00:43.768Z,50.58
2019-03-17T08:03:16.436Z,51.42
2019-03-17T08:05:49.402Z,49.60
2019-03-17T08:08:21.979Z,51.63
2019-03-17T08:10:54.645Z,50.92
2019-03-17T08:13:28.147Z,51.23
2019-03-17T08:16:01.851Z,51.68
2019-03-17T08:18:34.168Z,50.33
2019-03-17T08:21:06.933Z,50.55
2019-03-17T08:23:39.649Z,51.70
2019-03-17T08:26:12.373Z,48.87
2019-03-17T08:28:45.300Z,49.67
2019-03-17T08:31:18.060Z,53.35
2019-03-17T08:33:50.464Z,49.80
2019-03-17T08:36:23.152Z,52.90
2019-03-17T08:38:55.471Z,51.15
2019-03-17T08:41:28.031Z,50.73
2019-03-17T08:44:00.442Z,52.75
2019-03-17T08:46:33.294Z,52.70
2019-03-17T08:49:06.294Z,49.67
2019-03-17T08:51:38.781Z,50.52
2019-03-17T08:54:11.657Z,51.90
2019-03-17T08:56:43.820Z,50.35
2019-03-17T08:59:16.576Z,51.83
2019-03-17T09:01:49.249Z,50.12
2019-03-17T09:04:21.845Z,50.95
2019-03-17T09:06:54.215Z,52.48
2019-03-17T09:09:26.805Z,51.37
2019-03-17T09:11:59.311Z,51.15
2019-03-17T09:14:32.025Z,53.00
2019-03-17T09:17:13.807Z,51.05
2019-03-17T09:19:38.398Z,52.33
2019-03-17T09:22:10.846Z,54.60
2019-03-17T09:24:43.072Z,51.00
2019-03-17T09:27:15.656Z,50.90
2019-03-17T09:29:48.434Z,52.35
2019-03-17T09:32:20.928Z,53.52
2019-03-17T09:34:53.602Z,51.60
2019-03-17T09:37:27.213Z,52.45
2019-03-17T09:39:59.720Z,52.70
2019-03-17T09:42:32.085Z,54.42
2019-03-17T09:45:04.959Z,53.55
2019-03-17T09:47:37.178Z,53.55
2019-03-17T09:50:12.559Z,52.43
2019-03-17T09:52:45.692Z,53.28
2019-03-17T09:55:19.028Z,53.58
2019-03-17T09:57:51.937Z,53.28
2019-03-17T10:00:25.417Z,54.18
2019-03-17T10:02:58.166Z,54.30
2019-03-17T10:05:31.086Z,52.90
2019-03-17T10:08:03.679Z,55.43
2019-03-17T10:10:36.357Z,53.85
2019-03-17T10:13:08.998Z,53.15
2019-03-17T10:15:41.261Z,53.85
2019-03-17T10:18:14.113Z,53.15
2019-03-17T10:20:46.270Z,57.15
2019-03-17T10:23:19.686Z,55.98
2019-03-17T10:25:51.976Z,57.38
2019-03-17T10:28:24.352Z,56.73
2019-03-17T10:30:56.778Z,54.93
2019-03-17T10:33:29.489Z,56.55
2019-03-17T10:36:01.786Z,54.90
2019-03-17T10:38:34.502Z,54.13
2019-03-17T10:41:07.164Z,55.63
2019-03-17T10:43:39.908Z,57.38
2019-03-17T10:46:12.143Z,58.20
2019-03-17T10:48:44.808Z,56.50
2019-03-17T10:51:17.244Z,58.23
2019-03-17T10:53:49.582Z,56.90
2019-03-17T10:56:21.984Z,58.23
2019-03-17T10:58:54.309Z,58.17
2019-03-17T11:01:26.629Z,56.37
2019-03-17T11:03:59.393Z,65.57
2019-03-17T11:06:32.003Z,56.85
2019-03-17T11:09:04.753Z,64.17
2019-03-17T11:11:37.681Z,58.63
2019-03-17T11:14:10.093Z,56.85
2019-03-17T11:16:42.353Z,63.17
2019-03-17T11:19:14.940Z,58.68
2019-03-17T11:21:47.375Z,64.07
2019-03-17T11:24:19.877Z,61.25
2019-03-17T11:26:52.279Z,61.95
2019-03-17T11:29:24.783Z,69.20
2019-03-17T11:31:56.956Z,63.42
2019-03-17T11:34:29.409Z,71.57
2019-03-17T11:37:01.687Z,85.92
2019-03-17T11:39:37.929Z,99.47
2019-03-17T11:42:07.996Z,95.60
2019-03-17T11:44:40.928Z,87.67
2019-03-17T11:47:13.660Z,113.40
2019-03-17T11:49:46.336Z,76.77
2019-03-17T11:52:18.862Z,72.00
2019-03-17T11:54:51.412Z,71.40
2019-03-17T11:57:23.702Z,78.22
2019-03-17T11:59:56.365Z,82.67
2019-03-17T12:02:28.780Z,79.00
2019-03-17T12:05:01.346Z,67.92
2019-03-17T12:07:33.811Z,66.67
2019-03-17T12:10:09.039Z,63.20
2019-03-17T12:12:41.530Z,63.52
2019-03-17T12:15:16.703Z,59.55
2019-03-17T12:17:50.039Z,63.60
2019-03-17T12:20:23.190Z,60.43
2019-03-17T12:22:55.310Z,60.12
2019-03-17T12:25:27.753Z,66.33
2019-03-17T12:28:00.440Z,62.25
2019-03-17T12:30:33.402Z,65.45
2019-03-17T12:33:05.910Z,62.00
2019-03-17T12:35:38.407Z,66.72
2019-03-17T12:38:10.646Z,70.12
2019-03-17T12:40:43.184Z,68.37
2019-03-17T12:43:18.056Z,70.78
2019-03-17T12:45:50.724Z,69.53
2019-03-17T12:48:23.108Z,66.72
2019-03-17T12:50:55.555Z,61.73
2019-03-17T12:53:27.934Z,66.15
2019-03-17T12:56:00.511Z,69.47
2019-03-17T12:58:33.068Z,64.95
2019-03-17T13:01:05.605Z,70.75
2019-03-17T13:03:38.773Z,70.87
2019-03-17T13:06:12.593Z,82.50
2019-03-17T13:08:45.011Z,68.67
2019-03-17T13:11:18.552Z,73.45
2019-03-17T13:13:51.219Z,81.00
2019-03-17T13:16:23.749Z,74.30
2019-03-17T13:18:56.220Z,72.30
2019-03-17T13:21:28.964Z,70.12
2019-03-17T13:24:01.659Z,72.58
2019-03-17T13:26:34.150Z,75.25
2019-03-17T13:29:07.135Z,72.12
2019-03-17T13:31:39.469Z,70.75
2019-03-17T13:34:12.167Z,69.37
2019-03-17T13:36:46.562Z,72.03
2019-03-17T13:39:18.655Z,75.52
2019-03-17T13:41:51.086Z,75.85
2019-03-17T13:44:23.487Z,74.58
2019-03-17T13:46:56.674Z,80.12
2019-03-17T13:49:29.114Z,77.65
2019-03-17T13:52:01.534Z,74.70
2019-03-17T13:54:34.383Z,77.22
2019-03-17T13:57:06.848Z,75.65
2019-03-17T13:59:39.081Z,81.78
2019-03-17T14:02:11.520Z,83.58
2019-03-17T14:04:44.219Z,92.47
2019-03-17T14:07:17.034Z,85.72
2019-03-17T14:09:49.640Z,90.55
2019-03-17T14:12:22.057Z,81.02
2019-03-17T14:14:54.397Z,80.77
2019-03-17T14:17:26.811Z,89.35
2019-03-17T14:19:59.287Z,95.87
2019-03-17T14:22:32.025Z,92.08
2019-03-17T14:25:04.379Z,96.72
2019-03-17T14:27:36.946Z,100.87
2019-03-17T14:30:11.388Z,92.08
2019-03-17T14:32:45.138Z,88.55
2019-03-17T14:35:21.127Z,89.32
2019-03-17T14:37:53.116Z,96.00
2019-03-17T14:40:25.823Z,90.45
2019-03-17T14:42:58.470Z,85.72
2019-03-17T14:45:30.990Z,84.65
2019-03-17T14:48:03.480Z,200.03
2019-03-17T14:50:36.230Z,274.35
2019-03-17T14:53:09.069Z,89.70
2019-03-17T14:55:41.562Z,96.32
2019-03-17T14:58:13.930Z,89.70
2019-03-17T15:00:46.161Z,93.35
2019-03-17T15:03:18.671Z,98.10
2019-03-17T15:05:51.404Z,96.32
2019-03-17T15:08:24.122Z,97.22
2019-03-17T15:11:05.160Z,98.25
2019-03-17T15:13:30.641Z,89.40
2019-03-17T15:16:03.359Z,95.77
2019-03-17T15:18:48.425Z,119.82
2019-03-17T15:21:21.025Z,90.50
2019-03-17T15:23:53.573Z,89.40
2019-03-17T15:26:26.576Z,88.67
2019-03-17T15:28:59.123Z,95.38
2019-03-17T15:31:31.548Z,99.20
2019-03-17T15:34:04.090Z,112.83
2019-03-17T15:36:36.481Z,102.30
2019-03-17T15:39:09.420Z,95.75
2019-03-17T15:41:42.018Z,96.00
2019-03-17T15:44:14.365Z,92.78
2019-03-17T15:46:46.547Z,95.80
2019-03-17T15:49:19.052Z,94.58
2019-03-17T15:51:51.459Z,99.15
2019-03-17T15:54:23.932Z,80.70
2019-03-17T15:56:56.601Z,89.40
2019-03-17T15:59:29.230Z,95.25
2019-03-17T16:02:01.754Z,95.22
2019-03-17T16:04:34.435Z,89.37
2019-03-17T16:07:06.787Z,84.97
2019-03-17T16:09:39.389Z,89.52
2019-03-17T16:12:11.801Z,90.87
2019-03-17T16:14:44.433Z,92.75
2019-03-17T16:17:16.808Z,92.57
2019-03-17T16:19:49.448Z,93.22
2019-03-17T16:22:21.885Z,100.47
2019-03-17T16:24:54.627Z,93.62
2019-03-17T16:27:27.181Z,92.53
2019-03-17T16:30:00.361Z,92.65
2019-03-17T16:32:33.167Z,89.65
2019-03-17T16:35:06.098Z,94.07
2019-03-17T16:37:38.446Z,86.90
2019-03-17T16:40:13.399Z,94.00
2019-03-17T16:42:46.076Z,99.20
2019-03-17T16:45:20.309Z,93.95
2019-03-17T16:47:53.468Z,95.30
2019-03-17T16:50:26.592Z,97.22
2019-03-17T16:52:59.247Z,96.20
2019-03-17T16:55:31.888Z,96.17
2019-03-17T16:58:04.878Z,103.62
2019-03-17T17:00:37.693Z,102.80
2019-03-17T17:03:11.111Z,101.78
2019-03-17T17:05:43.687Z,100.90
2019-03-17T17:08:16.230Z,102.97
2019-03-17T17:10:50.589Z,102.67
2019-03-17T17:13:22.118Z,96.80
2019-03-17T17:15:54.546Z,107.58
2019-03-17T17:18:26.955Z,101.10
2019-03-17T17:20:59.432Z,98.00
2019-03-17T17:23:32.141Z,102.70
2019-03-17T17:26:04.932Z,97.67
2019-03-17T17:28:37.359Z,98.75
2019-03-17T17:31:09.889Z,99.37
2019-03-17T17:33:42.531Z,98.60
2019-03-17T17:36:14.870Z,96.70
2019-03-17T17:38:47.323Z,102.60
2019-03-17T17:41:19.800Z,92.82
2019-03-17T17:43:52.619Z,98.82
2019-03-17T17:46:24.999Z,96.67
2019-03-17T17:48:57.492Z,100.72
2019-03-17T17:51:30.034Z,94.42
2019-03-17T17:54:02.712Z,98.90
2019-03-17T17:56:35.193Z,103.12
2019-03-17T17:59:07.766Z,98.05
2019-03-17T18:01:41.056Z,98.33
2019-03-17T18:04:13.777Z,101.45
2019-03-17T18:06:46.110Z,99.42
2019-03-17T18:09:19.942Z,95.30
2019-03-17T18:11:52.105Z,96.53
2019-03-17T18:14:24.923Z,95.32
2019-03-17T18:16:57.636Z,98.58
2019-03-17T18:19:30.457Z,91.97
2019-03-17T18:22:02.676Z,95.57
2019-03-17T18:24:35.119Z,94.25
2019-03-17T18:27:07.494Z,88.90
2019-03-17T18:29:39.955Z,93.05
2019-03-17T18:32:12.469Z,95.45
2019-03-17T18:34:45.124Z,97.17
2019-03-17T18:37:17.751Z,98.80
2019-03-17T18:39:50.138Z,100.47
2019-03-17T18:42:32.664Z,94.50
2019-03-17T18:44:56.817Z,100.58
2019-03-17T18:47:29.502Z,97.20
2019-03-17T18:50:02.230Z,99.47
2019-03-17T18:52:34.640Z,100.60
2019-03-17T18:55:09.647Z,96.85
2019-03-17T18:57:42.355Z,102.85
2019-03-17T19:00:17.268Z,94.15
2019-03-17T19:02:50.080Z,110.65
2019-03-17T19:05:22.907Z,106.58
2019-03-17T19:07:55.386Z,106.85
2019-03-17T19:10:27.951Z,105.22
2019-03-17T19:13:03.667Z,106.50
2019-03-17T19:15:34.689Z,100.42
2019-03-17T19:18:07.593Z,101.75
2019-03-17T19:20:40.288Z,108.87
2019-03-17T19:23:12.635Z,103.00
2019-03-17T19:25:45.397Z,105.00
2019-03-17T19:28:17.814Z,104.30
2019-03-17T19:30:50.479Z,106.83
2019-03-17T19:33:23.136Z,106.50
2019-03-17T19:35:55.858Z,108.65
2019-03-17T19:38:28.195Z,99.67
2019-03-17T19:41:02.071Z,106.85
2019-03-17T19:43:34.808Z,106.05
2019-03-17T19:46:07.516Z,104.85
2019-03-17T19:48:40.017Z,107.32
2019-03-17T19:51:12.653Z,106.17
2019-03-17T19:53:44.965Z,110.48
2019-03-17T19:56:17.600Z,111.00
2019-03-17T19:58:49.965Z,105.10
2019-03-17T20:01:22.532Z,104.85
2019-03-17T20:03:55.963Z,103.22
2019-03-17T20:06:28.684Z,118.85
2019-03-17T20:09:01.049Z,115.00
2019-03-17T20:11:34.101Z,119.65
2019-03-17T20:14:06.526Z,116.37
2019-03-17T20:16:38.922Z,124.50
2019-03-17T20:19:11.527Z,119.50
2019-03-17T20:21:43.813Z,118.28
2019-03-17T20:24:16.588Z,111.62
2019-03-17T20:26:48.890Z,108.95
2019-03-17T20:29:21.526Z,105.03
2019-03-17T20:31:53.746Z,103.97
2019-03-17T20:34:26.366Z,112.35
2019-03-17T20:36:58.757Z,115.50
2019-03-17T20:39:31.684Z,116.03
2019-03-17T20:42:04.132Z,111.68
2019-03-17T20:44:36.413Z,115.37
2019-03-17T20:47:08.897Z,114.35
2019-03-17T20:49:41.506Z,127.17
2019-03-17T20:52:14.212Z,116.97
2019-03-17T20:54:46.947Z,125.07
2019-03-17T20:57:19.303Z,122.30
2019-03-17T20:59:51.771Z,119.37
2019-03-17T21:02:24.171Z,125.12
2019-03-17T21:04:56.712Z,125.72
2019-03-17T21:07:29.129Z,117.37
2019-03-17T21:10:01.953Z,120.60
2019-03-17T21:12:34.620Z,117.45
2019-03-17T21:15:09.711Z,113.25
2019-03-17T21:17:42.456Z,122.22
2019-03-17T21:20:16.834Z,122.50
2019-03-17T21:22:49.121Z,119.65
2019-03-17T21:25:21.750Z,117.75
2019-03-17T21:27:54.436Z,116.10
2019-03-17T21:30:29.445Z,121.87
2019-03-17T21:33:01.984Z,125.62
2019-03-17T21:35:34.478Z,126.75
2019-03-17T21:38:07.544Z,114.52
2019-03-17T21:40:56.137Z,119.55
2019-03-17T21:43:13.966Z,123.18
2019-03-17T21:45:46.166Z,130.45
2019-03-17T21:48:18.848Z,121.25
2019-03-17T21:50:51.298Z,124.62
2019-03-17T21:53:23.678Z,130.40
2019-03-17T21:55:56.091Z,129.23
2019-03-17T21:58:28.520Z,121.60
2019-03-17T22:01:00.760Z,128.18
2019-03-17T22:03:33.629Z,122.62
2019-03-17T22:06:06.301Z,130.27
2019-03-17T22:08:39.180Z,128.05
2019-03-17T22:11:11.799Z,121.47
2019-03-17T22:13:44.234Z,131.03
2019-03-17T22:16:16.850Z,127.15
2019-03-17T22:18:49.604Z,127.50
2019-03-17T22:21:22.117Z,122.22
2019-03-17T22:23:54.562Z,124.58
2019-03-17T22:26:27.149Z,122.00
2019-03-17T22:28:59.446Z,127.62
2019-03-17T22:31:32.012Z,121.40
2019-03-17T22:34:04.673Z,123.35
2019-03-17T22:36:37.496Z,125.75
2019-03-17T22:39:11.411Z,127.40
2019-03-17T22:41:44.114Z,127.60
2019-03-17T22:44:24.237Z,128.55
2019-03-17T22:46:50.435Z,128.12
2019-03-17T22:49:22.733Z,132.72
2019-03-17T22:51:55.469Z,128.40
2019-03-17T22:54:28.052Z,123.00
2019-03-17T22:57:01.179Z,128.18
2019-03-17T22:59:33.571Z,115.75
2019-03-17T23:02:06.402Z,127.95
2019-03-17T23:04:38.729Z,123.40
2019-03-17T23:07:11.498Z,131.72
2019-03-17T23:09:43.988Z,140.77
2019-03-17T23:12:16.379Z,128.20
2019-03-17T23:14:48.699Z,127.92
2019-03-17T23:17:21.351Z,133.12
2019-03-17T23:19:53.871Z,135.15
2019-03-17T23:22:26.878Z,128.53
2019-03-17T23:24:59.301Z,127.22
2019-03-17T23:27:31.706Z,135.85
2019-03-17T23:30:04.128Z,137.50
2019-03-17T23:32:37.803Z,131.90
2019-03-17T23:35:10.423Z,136.05
2019-03-17T23:37:44.146Z,136.75
2019-03-17T23:40:18.148Z,143.00
2019-03-17T23:42:50.775Z,138.15
2019-03-17T23:45:23.114Z,138.65
2019-03-17T23:47:55.705Z,131.78
2019-03-17T23:50:28.101Z,130.85
2019-03-17T23:53:00.734Z,132.27
2019-03-17T23:55:33.045Z,132.27
2019-03-17T23:58:05.773Z,133.47
